City Of Cleveland — WDC2358 — position and weather

sailwx.info

Track history (hours):
 
Tides and Currents Weather Stations Pressure Air Temp Water Temp Dewpoint Dewpoint Depression Visibility Wind Speed Wind Dir Waves Ship Positions

City Of Cleveland

More information available from US FCC via Universal Licensing System and Coast Guard Vessel Documentation Center.

Last reported at 2014-Jul-15 10:15 UTC. Time now 2014-Jul-23 11:56 UTC.
Position N 29°60' W 090°50'.
Warning: this ship's position is 8 days out of date.

Length 42 m; draft 12.5 m.

Type: Towing. MMSI: 366991810.

Date/timePositionNaut miles runAvg speedWind from/ knotsBaromVisibWave heightAir tempDewpointWater temp
2014-Jul-15 10:15N 29°60' W 090°50'2 2.7
2014-Jul-15 09:33N 29°60' W 090°48'4 3.9
2014-Jul-15 08:30N 30°01' W 090°43'5 3.7
2014-Jul-15 07:15N 30°03' W 090°38'3 3.7
2014-Jul-15 06:33N 30°03' W 090°35'0 0.2
2014-Jul-15 04:29N 30°03' W 090°35'22 0.9
2014-Jul-14 05:21N 29°56' W 090°11'38 1.5
2014-Jul-13 03:15N 30°05' W 090°54'31 2.3
2014-Jul-12 13:31N 30°31' W 091°16'0 0.0
2014-Jul-12 12:31N 30°31' W 091°16'1 0.5
2014-Jul-12 10:17N 30°31' W 091°17'  
Track history (hours):
 
Tides and Currents Weather Stations Pressure Air Temp Water Temp Dewpoint Dewpoint Depression Visibility Wind Speed Wind Dir Waves Ship Positions

City Of Cleveland

More information available from US FCC via Universal Licensing System and Coast Guard Vessel Documentation Center.

Last reported at 2014-Jul-15 10:15 UTC. Time now 2014-Jul-23 11:56 UTC.
Position N 29°60' W 090°50'.
Warning: this ship's position is 8 days out of date.

Length 42 m; draft 12.5 m.

Type: Towing. MMSI: 366991810.

Date/timePositionNaut miles runAvg speedWind from/ knotsBaromVisibWave heightAir tempDewpointWater temp
2014-Jul-15 10:15N 29°60' W 090°50'2 2.7
2014-Jul-15 09:33N 29°60' W 090°48'4 3.9
2014-Jul-15 08:30N 30°01' W 090°43'5 3.7
2014-Jul-15 07:15N 30°03' W 090°38'3 3.7
2014-Jul-15 06:33N 30°03' W 090°35'0 0.2
2014-Jul-15 04:29N 30°03' W 090°35'22 0.9
2014-Jul-14 05:21N 29°56' W 090°11'38 1.5
2014-Jul-13 03:15N 30°05' W 090°54'31 2.3
2014-Jul-12 13:31N 30°31' W 091°16'0 0.0
2014-Jul-12 12:31N 30°31' W 091°16'1 0.5
2014-Jul-12 10:17N 30°31' W 091°17'  

Dump ship's entire track history